• Join FlightAware (Why Join?)
  • Login
  • US Flag 
04:38AM EST


 

Airport Tracker/Info


-or-


 

Live Flight TrackerFlight Track Log ✈ N762NC ✈ 10-Oct-2013 ✈ KATL - KTYS

Flight Track Log - Related Links

Times and Time Zones

All times are in EDT time to prevent confusion due to time zone crossing. See the N762NC flight status page for this flight to view local times or setup timezone preferences in your user account.

Time Position Orientation Groundspeed Altitude Reporting Facility
EDT Latitude Longitude Course Direction KTS MPH feet Rate Location/Type
10:30AM 33.6500 -84.3833 North 159 183 2,100  Level Atlanta TRACON
10:31AM 33.6667 -84.3167 73° East 252 290 3,700 2,100 Climbing Atlanta TRACON
10:32AM 33.7167 -84.2500 48° Northeast 272 313 6,300 2,280 Climbing Atlanta TRACON
10:33AM 33.8850 -84.3662 12° North  Level FlightAware Approximate
10:33AM 33.7833 -84.2333 12° North 277 319 8,500  Level Atlanta TRACON
10:34AM 33.9685 -84.3504 North  Level Estimated
10:34AM 33.8667 -84.2833 334° Northwest 285 328 10,700  Level Atlanta TRACON
10:35AM 34.0517 -84.3323 10° North  Level FlightAware Approximate
10:36AM 34.1352 -84.3166 North  Level Estimated
10:36AM 34.0236 -84.3169 350° North 339 390 13,300  Level Atlanta Center
10:37AM 34.1278 -84.3275 355° North 356 410 14,000 1,620 Climbing Atlanta Center
10:38AM 34.2364 -84.3453 352° North 381 438 16,600 2,040 Climbing Atlanta Center
10:39AM 34.3386 -84.3406 North 375 432 18,100 1,380 Climbing Atlanta Center
10:40AM 34.4453 -84.3108 13° North 376 433 19,400 1,260 Climbing Atlanta Center
10:41AM 34.5558 -84.2733 16° North 394 453 20,700 1,500 Climbing Atlanta Center
10:42AM 34.6769 -84.2433 12° North 399 459 22,400 1,140 Climbing Atlanta Center
10:43AM 34.7897 -84.2108 13° North 399 459 23,000 -480 Climbing Atlanta Center
10:44AM 34.8878 -84.1831 13° North 406 467 21,500 -2,160 Descending Atlanta Center
10:45AM 34.9942 -84.1581 11° North 395 455 18,700 -2,940 Descending Atlanta Center
10:46AM 35.1028 -84.1303 12° North 390 449 15,700 -2,760 Descending Atlanta Center
10:47AM 35.2050 -84.1047 12° North 384 442 13,200 -2,100 Descending Atlanta Center
10:48AM 35.3011 -84.0794 12° North 369 425 11,500 -1,200 Descending Atlanta Center
10:49AM 35.3928 -84.0542 13° North 351 404 10,900 -780 Descending Atlanta Center
10:50AM 35.4825 -84.0286 13° North 332 382 10,000 -480 Descending Atlanta Center
10:51AM 35.5661 -84.0031 14° North 321 369 10,000 -600 Level Atlanta Center
10:52AM 35.6431 -83.9800 14° North 297 342 8,900 -1,380 Descending Atlanta Center
10:53AM 35.7183 -83.9594 12° North 278 320 7,300 -1,080 Descending Atlanta Center
10:54AM 35.7744 -83.9056 38° Northeast 263 303 6,800 -900 Descending Atlanta Center
10:55AM 35.8183 -83.8442 49° Northeast 246 283 5,500 -1,200 Descending Atlanta Center
10:56AM 35.8639 -83.7850 46° Northeast 236 272 4,400 -1,140 Descending Atlanta Center
10:58AM 35.8269 -83.9000 248° West  Level FlightAware Approximate